createdAt,value
2023-04-16T00:00:20.615Z,6.70
2023-04-16T00:01:20.587Z,7.30
2023-04-16T00:02:20.730Z,7.10
2023-04-16T00:03:20.779Z,7.80
2023-04-16T00:04:20.675Z,6.20
2023-04-16T00:05:20.534Z,8.60
2023-04-16T00:06:20.503Z,9.30
2023-04-16T00:07:20.512Z,8.90
2023-04-16T00:08:20.512Z,7.20
2023-04-16T00:09:20.507Z,8.40
2023-04-16T00:10:20.480Z,7.90
2023-04-16T00:11:20.459Z,7.50
2023-04-16T00:12:20.416Z,7.20
2023-04-16T00:13:20.453Z,7.20
2023-04-16T00:14:20.404Z,7.30
2023-04-16T00:15:20.633Z,6.60
2023-04-16T00:16:20.404Z,7.70
2023-04-16T00:17:20.430Z,7.60
2023-04-16T00:18:20.353Z,6.10
2023-04-16T00:19:20.363Z,6.60
2023-04-16T00:20:20.336Z,6.30
2023-04-16T00:21:20.324Z,6.20
2023-04-16T00:22:20.314Z,7.80
2023-04-16T00:23:20.306Z,6.60
2023-04-16T00:24:20.637Z,7.00
2023-04-16T00:25:20.641Z,6.20
2023-04-16T00:26:20.258Z,5.80
2023-04-16T00:27:20.258Z,6.10
2023-04-16T00:28:20.251Z,6.10
2023-04-16T00:29:20.237Z,6.40
2023-04-16T00:30:20.212Z,6.50
2023-04-16T00:31:20.281Z,6.50
2023-04-16T00:32:20.236Z,6.90
2023-04-16T00:33:20.474Z,7.60
2023-04-16T00:34:20.237Z,8.80
2023-04-16T00:35:20.156Z,9.10
2023-04-16T00:36:20.145Z,8.90
2023-04-16T00:37:20.170Z,7.80
2023-04-16T00:38:20.111Z,7.50
2023-04-16T00:39:20.122Z,7.10
2023-04-16T00:40:20.093Z,7.40
2023-04-16T00:41:20.645Z,7.60
2023-04-16T00:42:20.647Z,7.80
2023-04-16T00:43:20.091Z,8.40
2023-04-16T00:44:20.055Z,8.00
2023-04-16T00:45:20.058Z,8.50
2023-04-16T00:46:20.089Z,9.30
2023-04-16T00:47:20.109Z,9.30
2023-04-16T00:48:19.995Z,9.90
2023-04-16T00:49:20.653Z,9.70
2023-04-16T00:50:19.988Z,10.20
2023-04-16T00:51:19.986Z,9.40
2023-04-16T00:52:19.963Z,6.70
2023-04-16T00:53:19.968Z,8.40
2023-04-16T00:54:20.863Z,7.60
2023-04-16T00:55:21.388Z,8.30
2023-04-16T00:56:20.558Z,9.90
2023-04-16T00:57:21.364Z,8.80
2023-04-16T00:58:20.652Z,8.80
2023-04-16T00:59:19.897Z,9.60
2023-04-16T01:00:19.890Z,10.20
2023-04-16T01:01:19.862Z,11.80
2023-04-16T01:02:20.224Z,10.60
2023-04-16T01:03:19.975Z,10.80
2023-04-16T01:04:19.894Z,12.70
2023-04-16T01:05:19.835Z,12.90
2023-04-16T01:06:20.553Z,12.60
2023-04-16T01:07:19.808Z,12.70
2023-04-16T01:08:19.762Z,11.80
2023-04-16T01:09:19.912Z,13.00
2023-04-16T01:10:20.568Z,13.10
2023-04-16T01:11:20.122Z,12.30
2023-04-16T01:12:19.714Z,11.80
2023-04-16T01:13:19.745Z,12.00
2023-04-16T01:14:19.714Z,11.50
2023-04-16T01:15:19.699Z,11.30
2023-04-16T01:16:19.754Z,12.60
2023-04-16T01:17:19.708Z,12.20
2023-04-16T01:18:19.656Z,11.40
2023-04-16T01:19:19.685Z,14.10
2023-04-16T01:20:19.641Z,11.60
2023-04-16T01:21:19.648Z,11.40
2023-04-16T01:22:19.637Z,11.10
2023-04-16T01:23:19.669Z,8.00
2023-04-16T01:24:19.612Z,8.20
2023-04-16T01:25:19.587Z,9.20
2023-04-16T01:26:19.575Z,10.30
2023-04-16T01:27:19.565Z,10.40
2023-04-16T01:28:19.681Z,11.40
2023-04-16T01:29:19.530Z,9.40
2023-04-16T01:30:19.510Z,10.00
2023-04-16T01:31:19.543Z,9.90
2023-04-16T01:32:19.533Z,8.50
2023-04-16T01:33:19.520Z,8.90
2023-04-16T01:34:19.463Z,8.00
2023-04-16T01:35:19.463Z,7.70
2023-04-16T01:36:19.447Z,8.20
2023-04-16T01:37:20.914Z,9.20
2023-04-16T01:38:19.419Z,7.40
2023-04-16T01:39:19.449Z,8.90
2023-04-16T01:40:19.414Z,9.00
2023-04-16T01:41:19.395Z,10.30
2023-04-16T01:42:19.384Z,10.70
2023-04-16T01:43:19.393Z,9.70
2023-04-16T01:44:19.364Z,12.00
2023-04-16T01:45:19.369Z,10.10
2023-04-16T01:46:19.405Z,9.60
2023-04-16T01:47:19.394Z,8.00
2023-04-16T01:48:19.307Z,8.40
2023-04-16T01:49:19.312Z,10.30
2023-04-16T01:50:19.273Z,10.10
2023-04-16T01:51:19.277Z,9.70
2023-04-16T01:52:19.697Z,10.70
2023-04-16T01:53:19.251Z,9.10
2023-04-16T01:54:19.230Z,10.20
2023-04-16T01:55:19.235Z,9.30
2023-04-16T01:56:19.209Z,9.40
2023-04-16T01:57:19.230Z,9.50
2023-04-16T01:58:19.478Z,9.50
2023-04-16T01:59:19.224Z,8.70
2023-04-16T02:00:19.164Z,9.40
2023-04-16T02:01:19.356Z,9.30
2023-04-16T02:02:19.210Z,8.80
2023-04-16T02:03:19.234Z,9.70
2023-04-16T02:04:19.129Z,10.00
2023-04-16T02:05:19.128Z,8.70
2023-04-16T02:06:19.319Z,8.80
2023-04-16T02:07:19.126Z,9.20
2023-04-16T02:08:19.383Z,8.40
2023-04-16T02:09:19.086Z,9.70
2023-04-16T02:10:19.061Z,7.90
2023-04-16T02:11:19.060Z,10.00
2023-04-16T02:12:19.037Z,8.50
2023-04-16T02:13:19.034Z,7.90
2023-04-16T02:14:18.998Z,9.50
2023-04-16T02:15:18.989Z,10.80
2023-04-16T02:16:19.021Z,12.40
2023-04-16T02:17:19.709Z,11.30
2023-04-16T02:18:18.938Z,10.80
2023-04-16T02:19:18.959Z,12.70
2023-04-16T02:20:18.924Z,11.30
2023-04-16T02:21:18.922Z,11.30
2023-04-16T02:22:19.718Z,12.90
2023-04-16T02:23:18.902Z,11.70
2023-04-16T02:24:19.160Z,10.40
2023-04-16T02:25:19.728Z,9.40
2023-04-16T02:26:19.675Z,8.00
2023-04-16T02:27:18.862Z,9.10
2023-04-16T02:28:18.853Z,9.10
2023-04-16T02:29:18.839Z,7.20
2023-04-16T02:30:18.814Z,7.80
2023-04-16T02:31:18.858Z,8.10
2023-04-16T02:32:19.760Z,8.70
2023-04-16T02:33:18.803Z,7.50
2023-04-16T02:34:18.761Z,7.10
2023-04-16T02:35:18.765Z,6.70
2023-04-16T02:36:18.724Z,7.60
2023-04-16T02:37:18.751Z,7.30
2023-04-16T02:38:18.804Z,8.60
2023-04-16T02:39:18.710Z,7.90
2023-04-16T02:40:18.684Z,8.70
2023-04-16T02:41:18.729Z,7.00
2023-04-16T02:42:18.666Z,7.00
2023-04-16T02:43:18.688Z,7.90
2023-04-16T02:44:18.655Z,6.90
2023-04-16T02:45:18.644Z,8.30
2023-04-16T02:46:18.669Z,7.80
2023-04-16T02:47:18.746Z,8.10
2023-04-16T02:48:18.585Z,9.00
2023-04-16T02:49:18.615Z,6.80
2023-04-16T02:50:18.578Z,7.30
2023-04-16T02:51:18.576Z,6.70
2023-04-16T02:52:18.554Z,7.30
2023-04-16T02:53:18.553Z,6.10
2023-04-16T02:54:18.530Z,5.80
2023-04-16T02:55:18.526Z,6.00
2023-04-16T02:56:18.493Z,6.10
2023-04-16T02:57:18.499Z,6.10
2023-04-16T02:58:18.487Z,6.20
2023-04-16T02:59:18.481Z,5.40
2023-04-16T03:00:18.445Z,5.50
2023-04-16T03:01:18.493Z,5.50
2023-04-16T03:02:18.493Z,6.50
2023-04-16T03:03:18.525Z,6.20
2023-04-16T03:04:18.797Z,6.10
2023-04-16T03:05:19.855Z,5.60
2023-04-16T03:06:18.416Z,5.10
2023-04-16T03:07:18.415Z,6.50
2023-04-16T03:08:18.753Z,6.40
2023-04-16T03:09:18.364Z,5.40
2023-04-16T03:10:18.333Z,6.20
2023-04-16T03:11:18.345Z,5.90
2023-04-16T03:12:18.305Z,5.10
2023-04-16T03:13:18.334Z,5.60
2023-04-16T03:14:18.285Z,5.60
2023-04-16T03:15:18.320Z,6.80
2023-04-16T03:16:18.335Z,5.70
2023-04-16T03:17:18.331Z,6.10
2023-04-16T03:18:18.240Z,6.10
2023-04-16T03:19:18.236Z,5.60
2023-04-16T03:20:18.631Z,5.60
2023-04-16T03:21:18.222Z,5.80
2023-04-16T03:22:18.222Z,5.00
2023-04-16T03:23:18.198Z,5.40
2023-04-16T03:24:18.178Z,6.60
2023-04-16T03:25:18.190Z,6.70
2023-04-16T03:26:18.142Z,6.50
2023-04-16T03:27:18.155Z,7.00
2023-04-16T03:28:18.143Z,7.70
2023-04-16T03:29:18.162Z,5.70
2023-04-16T03:30:18.104Z,5.30
2023-04-16T03:31:18.132Z,5.60
2023-04-16T03:32:18.147Z,6.80
2023-04-16T03:33:18.074Z,6.00
2023-04-16T03:34:18.073Z,5.30
2023-04-16T03:35:18.047Z,5.80
2023-04-16T03:36:18.064Z,6.20
2023-04-16T03:37:18.030Z,6.20
2023-04-16T03:38:18.017Z,6.90
2023-04-16T03:39:18.019Z,8.00
2023-04-16T03:40:17.992Z,7.50
2023-04-16T03:41:17.974Z,8.10
2023-04-16T03:42:18.203Z,6.40
2023-04-16T03:43:17.968Z,6.40
2023-04-16T03:44:17.982Z,6.60
2023-04-16T03:45:18.295Z,7.50
2023-04-16T03:46:17.960Z,6.30
2023-04-16T03:47:17.928Z,6.50
2023-04-16T03:48:17.904Z,6.40
2023-04-16T03:49:17.888Z,6.00
2023-04-16T03:50:18.450Z,7.10
2023-04-16T03:51:17.865Z,6.70
2023-04-16T03:52:17.869Z,6.50
2023-04-16T03:53:17.831Z,7.00
2023-04-16T03:54:18.036Z,7.50
2023-04-16T03:55:17.805Z,6.10
2023-04-16T03:56:17.822Z,6.20
2023-04-16T03:57:17.794Z,5.80
2023-04-16T03:58:17.813Z,5.50
2023-04-16T03:59:17.779Z,6.90
2023-04-16T04:00:19.222Z,7.60
2023-04-16T04:01:17.732Z,7.20
2023-04-16T04:02:17.853Z,7.60
2023-04-16T04:03:17.980Z,6.80
2023-04-16T04:04:17.859Z,6.30
2023-04-16T04:05:17.695Z,6.40
2023-04-16T04:06:17.772Z,6.00
2023-04-16T04:07:17.699Z,6.80
2023-04-16T04:08:17.668Z,7.60
2023-04-16T04:09:17.809Z,6.10
2023-04-16T04:10:17.654Z,7.90
2023-04-16T04:11:17.625Z,7.00
2023-04-16T04:12:17.640Z,6.20
2023-04-16T04:13:17.609Z,6.70
2023-04-16T04:14:17.617Z,7.00
2023-04-16T04:15:17.593Z,6.40
2023-04-16T04:16:17.628Z,10.30
2023-04-16T04:17:17.561Z,9.50
2023-04-16T04:18:17.812Z,9.90
2023-04-16T04:19:17.526Z,8.00
2023-04-16T04:20:17.542Z,7.30
2023-04-16T04:21:17.501Z,7.10
2023-04-16T04:22:17.818Z,8.30
2023-04-16T04:23:17.481Z,6.60
2023-04-16T04:24:17.492Z,7.70
2023-04-16T04:25:17.460Z,7.00
2023-04-16T04:26:17.546Z,7.40
2023-04-16T04:27:17.431Z,7.90
2023-04-16T04:28:17.464Z,7.40
2023-04-16T04:29:17.437Z,9.20
2023-04-16T04:30:17.417Z,9.40
2023-04-16T04:31:17.423Z,6.90
2023-04-16T04:32:17.431Z,6.90
2023-04-16T04:33:17.366Z,8.90
2023-04-16T04:34:17.371Z,10.40
2023-04-16T04:35:17.357Z,10.60
2023-04-16T04:36:17.340Z,8.20
2023-04-16T04:37:17.330Z,7.90
2023-04-16T04:38:17.319Z,10.60
2023-04-16T04:39:17.317Z,11.80
2023-04-16T04:40:17.839Z,11.20
2023-04-16T04:41:17.301Z,11.90
2023-04-16T04:42:17.284Z,10.90
2023-04-16T04:43:17.268Z,14.00
2023-04-16T04:44:17.242Z,10.40
2023-04-16T04:45:17.224Z,11.60
2023-04-16T04:46:17.280Z,10.60
2023-04-16T04:47:17.219Z,9.90
2023-04-16T04:48:17.211Z,9.30
2023-04-16T04:49:17.829Z,9.40
2023-04-16T04:50:17.189Z,10.00
2023-04-16T04:51:17.192Z,9.40
2023-04-16T04:52:17.190Z,10.40
2023-04-16T04:53:17.123Z,10.50
2023-04-16T04:54:17.146Z,8.30
2023-04-16T04:55:17.104Z,9.00
2023-04-16T04:56:17.104Z,11.80
2023-04-16T04:57:17.100Z,10.90
2023-04-16T04:58:18.134Z,10.80
2023-04-16T04:59:17.046Z,10.70
2023-04-16T05:00:17.055Z,10.50
2023-04-16T05:01:17.100Z,8.90
2023-04-16T05:02:17.140Z,10.40
2023-04-16T05:03:17.162Z,9.80
2023-04-16T05:04:17.535Z,9.30
2023-04-16T05:05:17.018Z,9.70
2023-04-16T05:06:16.995Z,9.80
2023-04-16T05:07:17.783Z,10.70
2023-04-16T05:08:16.963Z,9.60
2023-04-16T05:09:16.952Z,9.40
2023-04-16T05:10:16.944Z,9.40
2023-04-16T05:11:16.934Z,9.80
2023-04-16T05:12:16.912Z,12.30
2023-04-16T05:13:16.913Z,11.50
2023-04-16T05:14:16.945Z,10.60
2023-04-16T05:15:16.879Z,10.00
2023-04-16T05:16:16.894Z,11.50
2023-04-16T05:17:16.855Z,9.70
2023-04-16T05:18:16.845Z,9.20
2023-04-16T05:19:16.832Z,9.40
2023-04-16T05:20:16.853Z,8.80
2023-04-16T05:21:16.797Z,9.40
2023-04-16T05:22:16.821Z,9.30
2023-04-16T05:23:16.790Z,9.60
2023-04-16T05:24:16.938Z,9.90
2023-04-16T05:25:16.779Z,9.20
2023-04-16T05:26:16.764Z,8.00
2023-04-16T05:27:16.726Z,8.80
2023-04-16T05:28:16.748Z,8.30
2023-04-16T05:29:16.713Z,8.60
2023-04-16T05:30:16.728Z,8.60
2023-04-16T05:31:16.745Z,9.20
2023-04-16T05:32:16.782Z,8.70
2023-04-16T05:33:16.669Z,9.30
2023-04-16T05:34:16.672Z,8.60
2023-04-16T05:35:17.595Z,8.30
2023-04-16T05:36:18.112Z,8.50
2023-04-16T05:37:16.653Z,7.20
2023-04-16T05:38:16.620Z,8.00
2023-04-16T05:39:16.582Z,8.50
2023-04-16T05:40:16.598Z,9.10
2023-04-16T05:41:16.562Z,9.20
2023-04-16T05:42:16.616Z,7.70
2023-04-16T05:43:16.541Z,8.70
2023-04-16T05:44:18.018Z,8.50
2023-04-16T05:45:16.514Z,8.20
2023-04-16T05:46:16.531Z,7.90
2023-04-16T05:47:16.509Z,10.70
2023-04-16T05:48:16.498Z,10.50
2023-04-16T05:49:16.466Z,12.20
2023-04-16T05:50:16.482Z,9.40
2023-04-16T05:51:16.443Z,9.20
2023-04-16T05:52:17.927Z,10.40
2023-04-16T05:53:16.427Z,9.30
2023-04-16T05:54:16.422Z,8.80
2023-04-16T05:55:16.407Z,9.20
2023-04-16T05:56:16.400Z,9.30
2023-04-16T05:57:16.403Z,9.00
2023-04-16T05:58:16.386Z,9.00
2023-04-16T05:59:16.349Z,8.50
2023-04-16T06:00:16.367Z,8.00
2023-04-16T06:01:16.328Z,9.30
2023-04-16T06:02:16.436Z,9.70
2023-04-16T06:03:16.478Z,9.10
2023-04-16T06:04:16.461Z,8.40
2023-04-16T06:05:16.280Z,10.00
2023-04-16T06:06:16.282Z,9.70
2023-04-16T06:07:16.259Z,12.00
2023-04-16T06:08:16.593Z,11.20
2023-04-16T06:09:16.248Z,12.50
2023-04-16T06:10:16.246Z,12.00
2023-04-16T06:11:16.224Z,10.10
2023-04-16T06:12:16.222Z,9.90
2023-04-16T06:13:16.194Z,10.30
2023-04-16T06:14:16.198Z,10.40
2023-04-16T06:15:16.167Z,10.80
2023-04-16T06:16:16.212Z,10.80
2023-04-16T06:17:16.146Z,10.10
2023-04-16T06:18:16.208Z,9.90
2023-04-16T06:19:16.135Z,11.20
2023-04-16T06:20:16.136Z,9.60
2023-04-16T06:21:16.102Z,9.80
2023-04-16T06:22:16.089Z,10.40
2023-04-16T06:23:16.906Z,12.00
2023-04-16T06:24:16.922Z,11.70
2023-04-16T06:25:18.138Z,11.10
2023-04-16T06:26:16.068Z,10.10
2023-04-16T06:27:16.014Z,11.70
2023-04-16T06:28:16.925Z,13.70
2023-04-16T06:29:16.010Z,13.00
2023-04-16T06:30:16.002Z,11.90
2023-04-16T06:31:16.025Z,12.50
2023-04-16T06:32:15.974Z,11.80
2023-04-16T06:33:15.951Z,12.90
2023-04-16T06:34:15.996Z,12.90
2023-04-16T06:35:15.930Z,11.90
2023-04-16T06:36:15.930Z,11.50
2023-04-16T06:37:15.908Z,10.80
2023-04-16T06:38:15.914Z,11.00
2023-04-16T06:39:15.895Z,10.80
2023-04-16T06:40:15.895Z,12.10
2023-04-16T06:41:15.853Z,11.30
2023-04-16T06:42:15.887Z,11.10
2023-04-16T06:43:15.836Z,10.50
2023-04-16T06:44:15.856Z,11.30
2023-04-16T06:45:15.816Z,11.40
2023-04-16T06:46:15.840Z,14.70
2023-04-16T06:47:15.788Z,13.90
2023-04-16T06:48:15.784Z,13.60
2023-04-16T06:49:15.795Z,12.90
2023-04-16T06:50:15.764Z,12.80
2023-04-16T06:51:15.739Z,17.00
2023-04-16T06:52:15.742Z,14.60
2023-04-16T06:53:15.729Z,14.70
2023-04-16T06:54:15.751Z,13.10
2023-04-16T06:55:15.692Z,12.40
2023-04-16T06:56:15.700Z,14.10
2023-04-16T06:57:15.668Z,14.50
2023-04-16T06:58:15.666Z,14.40
2023-04-16T06:59:15.663Z,11.80
2023-04-16T07:00:15.656Z,13.40
2023-04-16T07:01:15.664Z,13.50
2023-04-16T07:02:15.693Z,12.40
2023-04-16T07:03:15.721Z,13.40
2023-04-16T07:04:15.646Z,16.10
2023-04-16T07:05:15.586Z,17.30
2023-04-16T07:06:15.591Z,14.10
2023-04-16T07:07:15.552Z,12.20
2023-04-16T07:08:15.550Z,14.10
2023-04-16T07:09:15.548Z,12.60
2023-04-16T07:10:15.547Z,12.70
2023-04-16T07:11:15.510Z,13.70
2023-04-16T07:12:15.511Z,13.00
2023-04-16T07:13:15.490Z,13.00
2023-04-16T07:14:15.499Z,13.70
2023-04-16T07:15:15.469Z,11.90
2023-04-16T07:16:15.503Z,10.90
2023-04-16T07:17:15.435Z,10.50
2023-04-16T07:18:15.442Z,10.30
2023-04-16T07:19:15.431Z,11.80
2023-04-16T07:20:15.419Z,11.20
2023-04-16T07:21:15.389Z,8.80
2023-04-16T07:22:15.388Z,11.70
2023-04-16T07:23:15.366Z,12.00
2023-04-16T07:24:15.374Z,12.20
2023-04-16T07:25:15.343Z,10.60
2023-04-16T07:26:15.346Z,11.60
2023-04-16T07:27:15.333Z,11.40
2023-04-16T07:28:15.323Z,11.30
2023-04-16T07:29:15.332Z,10.60
2023-04-16T07:30:15.313Z,10.00
2023-04-16T07:31:15.268Z,8.80
2023-04-16T07:32:15.719Z,9.30
2023-04-16T07:33:15.250Z,11.60
2023-04-16T07:34:15.249Z,12.10
2023-04-16T07:35:15.240Z,14.30
2023-04-16T07:36:15.222Z,11.80
2023-04-16T07:37:15.206Z,12.40
2023-04-16T07:38:15.228Z,10.10
2023-04-16T07:39:15.220Z,10.00
2023-04-16T07:40:15.248Z,10.40
2023-04-16T07:41:15.195Z,10.30
2023-04-16T07:42:15.187Z,12.20
2023-04-16T07:43:15.506Z,12.30
2023-04-16T07:44:15.165Z,11.10
2023-04-16T07:45:15.142Z,9.30
2023-04-16T07:46:15.184Z,9.90
2023-04-16T07:47:15.106Z,11.90
2023-04-16T07:48:15.104Z,11.10
2023-04-16T07:49:15.141Z,10.30
2023-04-16T07:50:15.081Z,12.00
2023-04-16T07:51:15.052Z,10.00
2023-04-16T07:52:15.051Z,12.80
2023-04-16T07:53:15.031Z,11.20
2023-04-16T07:54:15.027Z,11.30
2023-04-16T07:55:15.032Z,10.20
2023-04-16T07:56:14.980Z,10.10
2023-04-16T07:57:14.992Z,10.10
2023-04-16T07:58:14.972Z,9.00
2023-04-16T07:59:22.902Z,9.30
2023-04-16T08:00:15.948Z,10.50
2023-04-16T08:01:14.940Z,11.70
2023-04-16T08:02:15.021Z,8.60
2023-04-16T08:03:15.332Z,10.10
2023-04-16T08:04:15.034Z,11.70
2023-04-16T08:05:14.920Z,9.40
2023-04-16T08:06:14.857Z,9.70
2023-04-16T08:07:14.909Z,8.40
2023-04-16T08:08:14.873Z,9.60
2023-04-16T08:09:14.829Z,7.90
2023-04-16T08:10:14.829Z,8.50
2023-04-16T08:11:14.829Z,8.80
2023-04-16T08:12:14.809Z,9.20
2023-04-16T08:13:14.793Z,9.30
2023-04-16T08:14:14.776Z,9.70
2023-04-16T08:15:14.773Z,8.50
2023-04-16T08:16:14.841Z,7.80
2023-04-16T08:17:15.455Z,7.90
2023-04-16T08:18:14.734Z,8.10
2023-04-16T08:19:14.732Z,10.00
2023-04-16T08:20:18.509Z,10.50
2023-04-16T08:21:15.007Z,9.20
2023-04-16T08:22:14.688Z,9.30
2023-04-16T08:23:14.703Z,7.60
2023-04-16T08:24:14.656Z,7.80
2023-04-16T08:25:14.724Z,8.70
2023-04-16T08:26:14.636Z,8.10
2023-04-16T08:27:18.387Z,7.30
2023-04-16T08:28:15.632Z,8.10
2023-04-16T08:29:14.633Z,9.00
2023-04-16T08:30:14.584Z,10.50
2023-04-16T08:31:14.599Z,9.30
2023-04-16T08:32:14.578Z,9.70
2023-04-16T08:33:14.612Z,10.00
2023-04-16T08:34:14.566Z,9.70
2023-04-16T08:35:14.570Z,9.40
2023-04-16T08:36:14.550Z,10.10
2023-04-16T08:37:14.534Z,11.10
2023-04-16T08:38:14.493Z,12.20
2023-04-16T08:39:14.506Z,12.40
2023-04-16T08:40:14.476Z,11.30
2023-04-16T08:41:14.481Z,9.80
2023-04-16T08:42:14.449Z,10.60
2023-04-16T08:43:14.493Z,10.90
2023-04-16T08:44:14.439Z,9.30
2023-04-16T08:45:14.451Z,9.80
2023-04-16T08:46:14.441Z,8.60
2023-04-16T08:47:14.404Z,9.50
2023-04-16T08:48:14.383Z,9.40
2023-04-16T08:49:14.381Z,10.00
2023-04-16T08:50:14.362Z,9.00
2023-04-16T08:51:14.373Z,8.80
2023-04-16T08:52:15.117Z,8.20
2023-04-16T08:53:15.026Z,7.80
2023-04-16T08:54:14.310Z,8.50
2023-04-16T08:55:14.338Z,8.10
2023-04-16T08:56:14.302Z,8.40
2023-04-16T08:57:15.235Z,7.20
2023-04-16T08:58:14.647Z,6.30
2023-04-16T08:59:14.394Z,6.80
2023-04-16T09:00:14.235Z,8.50
2023-04-16T09:01:14.243Z,6.30
2023-04-16T09:02:14.296Z,6.70
2023-04-16T09:03:14.407Z,6.90
2023-04-16T09:04:15.074Z,6.10
2023-04-16T09:05:15.037Z,6.80
2023-04-16T09:06:15.031Z,6.40
2023-04-16T09:07:14.209Z,6.20
2023-04-16T09:08:15.029Z,6.30
2023-04-16T09:09:14.142Z,5.60
2023-04-16T09:10:14.124Z,6.20
2023-04-16T09:11:14.141Z,6.00
2023-04-16T09:12:14.089Z,6.00
2023-04-16T09:13:14.123Z,5.70
2023-04-16T09:14:14.079Z,5.60
2023-04-16T09:15:14.166Z,5.00
2023-04-16T09:16:14.061Z,5.60
2023-04-16T09:17:14.082Z,6.00
2023-04-16T09:18:14.035Z,5.00
2023-04-16T09:19:14.028Z,5.80
2023-04-16T09:20:14.031Z,6.50
2023-04-16T09:21:14.060Z,6.50
2023-04-16T09:22:13.986Z,5.30
2023-04-16T09:23:13.977Z,6.70
2023-04-16T09:24:13.958Z,7.70
2023-04-16T09:25:13.985Z,7.30
2023-04-16T09:26:13.930Z,8.20
2023-04-16T09:27:13.981Z,9.00
2023-04-16T09:28:13.928Z,8.80
2023-04-16T09:29:13.926Z,7.90
2023-04-16T09:30:13.920Z,8.40
2023-04-16T09:31:13.959Z,8.60
2023-04-16T09:32:14.006Z,7.90
2023-04-16T09:33:13.885Z,7.50
2023-04-16T09:34:13.858Z,7.70
2023-04-16T09:35:13.848Z,8.60
2023-04-16T09:36:13.806Z,8.10
2023-04-16T09:37:13.846Z,9.00
2023-04-16T09:38:13.792Z,7.70
2023-04-16T09:39:13.836Z,6.90
2023-04-16T09:40:13.773Z,6.70
2023-04-16T09:41:13.796Z,7.70
2023-04-16T09:42:13.768Z,7.20
2023-04-16T09:43:13.750Z,8.30
2023-04-16T09:44:13.732Z,7.50
2023-04-16T09:45:13.764Z,6.60
2023-04-16T09:46:13.774Z,7.10
2023-04-16T09:47:15.173Z,7.50
2023-04-16T09:48:13.731Z,8.00
2023-04-16T09:49:13.744Z,8.10
2023-04-16T09:50:15.372Z,7.70
2023-04-16T09:51:13.696Z,6.40
2023-04-16T09:52:13.675Z,8.40
2023-04-16T09:53:13.708Z,9.90
2023-04-16T09:54:14.102Z,8.00
2023-04-16T09:55:13.669Z,8.30
2023-04-16T09:56:13.736Z,9.10
2023-04-16T09:57:13.682Z,9.70
2023-04-16T09:58:13.594Z,9.40
2023-04-16T09:59:13.601Z,9.70
2023-04-16T10:00:13.592Z,9.90
2023-04-16T10:01:13.594Z,9.80
2023-04-16T10:02:15.599Z,10.40
2023-04-16T10:03:13.696Z,9.80
2023-04-16T10:04:13.563Z,10.10
2023-04-16T10:05:13.548Z,13.20
2023-04-16T10:06:13.486Z,12.70
2023-04-16T10:07:13.527Z,13.80
2023-04-16T10:08:13.474Z,14.10
2023-04-16T10:09:13.492Z,13.10
2023-04-16T10:10:13.462Z,12.30
2023-04-16T10:11:13.454Z,12.70
2023-04-16T10:12:13.460Z,12.90
2023-04-16T10:13:13.434Z,12.40
2023-04-16T10:14:13.398Z,12.80
2023-04-16T10:15:13.420Z,12.30
2023-04-16T10:16:13.427Z,12.40
2023-04-16T10:17:13.411Z,11.60
2023-04-16T10:18:13.402Z,11.60
2023-04-16T10:19:13.336Z,12.00
2023-04-16T10:20:14.232Z,11.80
2023-04-16T10:21:13.358Z,10.20
2023-04-16T10:22:13.315Z,10.10
2023-04-16T10:23:13.321Z,11.10
2023-04-16T10:24:13.266Z,10.00
2023-04-16T10:25:13.271Z,10.00
2023-04-16T10:26:14.098Z,10.30
2023-04-16T10:27:13.278Z,10.40
2023-04-16T10:28:13.242Z,11.10
2023-04-16T10:29:13.237Z,10.50
2023-04-16T10:30:13.204Z,10.90
2023-04-16T10:31:13.248Z,11.30
2023-04-16T10:32:13.199Z,10.20
2023-04-16T10:33:13.192Z,10.00
2023-04-16T10:34:13.198Z,10.30
2023-04-16T10:35:13.158Z,10.20
2023-04-16T10:36:13.148Z,9.70
2023-04-16T10:37:13.149Z,11.40
2023-04-16T10:38:13.124Z,11.30
2023-04-16T10:39:15.529Z,10.80
2023-04-16T10:40:13.079Z,10.90
2023-04-16T10:41:13.114Z,11.10
2023-04-16T10:42:13.150Z,11.00
2023-04-16T10:43:13.067Z,12.90
2023-04-16T10:44:13.036Z,12.90
2023-04-16T10:45:13.048Z,12.90
2023-04-16T10:46:13.078Z,13.40
2023-04-16T10:47:13.093Z,13.30
2023-04-16T10:48:13.015Z,12.40
2023-04-16T10:49:13.001Z,13.60
2023-04-16T10:50:12.966Z,17.70
2023-04-16T10:51:13.008Z,14.80
2023-04-16T10:52:12.969Z,12.90
2023-04-16T10:53:12.961Z,12.60
2023-04-16T10:54:12.911Z,12.90
2023-04-16T10:55:12.924Z,12.40
2023-04-16T10:56:12.893Z,12.00
2023-04-16T10:57:12.934Z,13.70
2023-04-16T10:58:12.869Z,12.60
2023-04-16T10:59:13.026Z,13.20
2023-04-16T11:00:12.854Z,11.30
2023-04-16T11:01:12.932Z,12.40
2023-04-16T11:02:12.970Z,10.20
2023-04-16T11:03:13.054Z,11.80
2023-04-16T11:04:12.980Z,10.40
2023-04-16T11:05:12.802Z,11.10
2023-04-16T11:06:12.891Z,11.10
2023-04-16T11:07:12.795Z,11.40
2023-04-16T11:08:12.749Z,11.00
2023-04-16T11:09:12.827Z,11.60
2023-04-16T11:10:12.770Z,12.90
2023-04-16T11:11:12.737Z,11.70
2023-04-16T11:12:12.733Z,10.90
2023-04-16T11:13:12.702Z,10.10
2023-04-16T11:14:12.683Z,14.80
2023-04-16T11:15:12.684Z,14.30
2023-04-16T11:16:12.698Z,16.90
2023-04-16T11:17:12.661Z,15.50
2023-04-16T11:18:12.667Z,13.60
2023-04-16T11:19:12.626Z,12.10
2023-04-16T11:20:17.496Z,10.90
2023-04-16T11:21:13.609Z,11.60
2023-04-16T11:22:12.586Z,11.30
2023-04-16T11:23:12.619Z,10.50
2023-04-16T11:24:12.561Z,12.00
2023-04-16T11:25:12.562Z,11.90
2023-04-16T11:26:12.602Z,12.40
2023-04-16T11:27:12.558Z,12.40
2023-04-16T11:28:12.521Z,14.00
2023-04-16T11:29:12.558Z,12.40
2023-04-16T11:30:12.489Z,11.00
2023-04-16T11:31:12.527Z,11.20
2023-04-16T11:32:12.467Z,10.50
2023-04-16T11:33:12.459Z,11.20
2023-04-16T11:34:12.442Z,10.90
2023-04-16T11:35:12.444Z,10.80
2023-04-16T11:36:12.469Z,11.40
2023-04-16T11:37:12.424Z,10.10
2023-04-16T11:38:12.436Z,10.00
2023-04-16T11:39:12.593Z,11.20
2023-04-16T11:40:12.364Z,11.80
2023-04-16T11:41:12.368Z,10.10
2023-04-16T11:42:12.410Z,11.60
2023-04-16T11:43:12.845Z,11.00
2023-04-16T11:44:12.867Z,11.40
2023-04-16T11:45:12.356Z,11.40
2023-04-16T11:46:26.383Z,10.80
2023-04-16T11:47:13.358Z,11.90
2023-04-16T11:48:12.326Z,11.50
2023-04-16T11:49:12.544Z,10.70
2023-04-16T11:50:12.256Z,12.80
2023-04-16T11:51:12.260Z,12.60
2023-04-16T11:52:12.231Z,12.30
2023-04-16T11:53:12.251Z,11.30
2023-04-16T11:54:12.372Z,12.30
2023-04-16T11:55:12.264Z,12.20
2023-04-16T11:56:12.178Z,12.40
2023-04-16T11:57:12.209Z,11.30
2023-04-16T11:58:12.161Z,12.20
2023-04-16T11:59:12.574Z,13.50
2023-04-16T12:00:12.147Z,13.50
2023-04-16T12:01:12.159Z,12.10
2023-04-16T12:02:12.525Z,11.10
2023-04-16T12:03:12.278Z,12.90
2023-04-16T12:04:12.278Z,12.10
2023-04-16T12:05:12.212Z,12.20
2023-04-16T12:06:12.085Z,14.50
2023-04-16T12:07:12.039Z,13.30
2023-04-16T12:08:12.074Z,13.50
2023-04-16T12:09:12.199Z,14.50
2023-04-16T12:10:12.076Z,11.50
2023-04-16T12:11:12.001Z,11.60
2023-04-16T12:12:12.018Z,12.20
2023-04-16T12:13:11.980Z,11.40
2023-04-16T12:14:11.992Z,11.60
2023-04-16T12:15:12.191Z,11.00
2023-04-16T12:16:11.978Z,11.60
2023-04-16T12:17:12.023Z,12.40
2023-04-16T12:18:11.996Z,14.60
2023-04-16T12:19:12.081Z,12.90
2023-04-16T12:20:11.998Z,14.50
2023-04-16T12:21:12.009Z,14.40
2023-04-16T12:22:11.892Z,13.50
2023-04-16T12:23:11.887Z,11.60
2023-04-16T12:24:11.871Z,11.30
2023-04-16T12:25:11.849Z,13.70
2023-04-16T12:26:11.839Z,16.80
2023-04-16T12:27:11.827Z,15.70
2023-04-16T12:28:11.822Z,16.30
2023-04-16T12:29:11.966Z,15.90
2023-04-16T12:30:11.837Z,16.00
2023-04-16T12:31:11.825Z,12.80
2023-04-16T12:32:11.811Z,14.10
2023-04-16T12:33:11.811Z,13.00
2023-04-16T12:34:11.754Z,11.30
2023-04-16T12:35:11.729Z,10.50
2023-04-16T12:36:11.733Z,12.30
2023-04-16T12:37:11.698Z,13.70
2023-04-16T12:38:11.702Z,12.80
2023-04-16T12:39:11.891Z,10.30
2023-04-16T12:40:11.691Z,11.50
2023-04-16T12:41:11.656Z,9.80
2023-04-16T12:42:11.666Z,10.70
2023-04-16T12:43:11.628Z,13.40
2023-04-16T12:44:11.640Z,10.90
2023-04-16T12:45:11.618Z,11.40
2023-04-16T12:46:11.678Z,12.00
2023-04-16T12:47:11.590Z,12.20
2023-04-16T12:48:11.581Z,11.70
2023-04-16T12:49:11.812Z,12.20
2023-04-16T12:50:12.211Z,12.10
2023-04-16T12:51:11.533Z,11.40
2023-04-16T12:52:11.548Z,10.50
2023-04-16T12:53:11.529Z,11.50
2023-04-16T12:54:11.532Z,10.20
2023-04-16T12:55:11.499Z,11.20
2023-04-16T12:56:11.498Z,11.00
2023-04-16T12:57:11.519Z,11.40
2023-04-16T12:58:12.613Z,10.10
2023-04-16T12:59:11.554Z,9.80
2023-04-16T13:00:12.226Z,9.70
2023-04-16T13:01:11.457Z,12.30
2023-04-16T13:02:11.498Z,11.50
2023-04-16T13:03:11.618Z,10.40
2023-04-16T13:04:11.490Z,9.60
2023-04-16T13:05:11.362Z,9.80